Change the Weather History Date:

Thursday, April 3, 2014

  Actual Average (KGYR) Record (KGYR)
Temperature  
Mean Temperature 55 °F -  
Max Temperature 71 °F 76 °F 89 °F (2005)
Min Temperature 39 °F 50 °F 44 °F (1998)
Degree Days  
Heating Degree Days 10    
Growing Degree Days 5 (Base 50)    
Moisture  
Dew Point 25 °F    
Average Humidity 34    
Maximum Humidity 61    
Minimum Humidity 17    
Precipitation  
Precipitation 0.00 in - - ()
Sea Level Pressure  
Sea Level Pressure 30.02 in    
Wind  
Wind Speed 4 mph (NNE)    
Max Wind Speed 9 mph    
Max Gust Speed -    
Visibility 10 miles    
Events      
Averages and records for this station are not official NWS values.
T = Trace of Precipitation, MM = Missing Value Source: NWS Daily Summary

Daily Weather History Graph

Daily Weather History Graph

Search for Another Location

Airport or City:

Trip Planner

Search our weather history database for the weather conditions in past years. The results will help you decide how hot, cold, wet, or windy it might be!

Date:

Astronomy

Apr. 03, 2014 Rise Set
Actual Time 6:15 AM MST 6:52 PM MST
Civil Twilight 5:50 AM MST 7:17 PM MST
Nautical Twilight 5:21 AM MST 7:47 PM MST
Astronomical Twilight 4:51 AM MST 8:17 PM MST
Moon 8:57 AM MST (4/3) 11:05 PM MST (4/3)
Length of Visible Light 13h 27m
Length of Day
12h 37m
Waxing Crescent, 18% of the Moon is Illuminated
Apr 3
Waxing Crescent
Apr 7
First Quarter
Apr 15
Full
Apr 22
Last Quarter
Apr 28
New

Hourly Weather History & Observations

Time (MST) Temp. Windchill Dew Point Humidity Pressure Visibility Wind Dir Wind Speed Gust Speed Precip Events Conditions
12:15 AM 46.4 °F 43.5 °F 30.2 °F 53% 29.95 in 10.0 mi WSW 5.8 mph - N/A   Clear
12:35 AM 46.4 °F 42.9 °F 26.6 °F 46% 29.95 in 10.0 mi West 6.9 mph - N/A   Clear
12:55 AM 46.4 °F 42.9 °F 24.8 °F 43% 29.96 in 10.0 mi NW 6.9 mph - N/A   Clear
1:15 AM 46.4 °F 45.2 °F 24.8 °F 43% 29.96 in 10.0 mi NNW 3.5 mph - N/A   Clear
1:35 AM 46.4 °F 44.3 °F 24.8 °F 43% 29.96 in 10.0 mi North 4.6 mph - N/A   Clear
1:55 AM 44.6 °F 41.4 °F 24.8 °F 46% 29.96 in 10.0 mi North 5.8 mph - N/A   Clear
2:15 AM 44.6 °F 42.2 °F 24.8 °F 46% 29.96 in 10.0 mi NNE 4.6 mph - N/A   Clear
2:35 AM 44.6 °F 43.1 °F 24.8 °F 46% 29.96 in 10.0 mi NNE 3.5 mph - N/A   Clear
2:55 AM 42.8 °F - 24.8 °F 49% 29.96 in 10.0 mi Calm Calm - N/A   Clear
3:15 AM 41.0 °F - 24.8 °F 53% 29.97 in 10.0 mi Calm Calm - N/A   Clear
3:35 AM 41.0 °F - 24.8 °F 53% 29.97 in 10.0 mi Calm Calm - N/A   Clear
3:55 AM 39.2 °F 34.2 °F 24.8 °F 56% 29.97 in 10.0 mi NNW 6.9 mph - N/A   Clear
4:15 AM 39.2 °F 35.0 °F 24.8 °F 56% 29.98 in 10.0 mi NNW 5.8 mph - N/A   Clear
4:35 AM 39.2 °F 35.0 °F 23.0 °F 52% 29.98 in 10.0 mi North 5.8 mph - N/A   Clear
4:55 AM 39.2 °F 35.9 °F 23.0 °F 52% 29.99 in 10.0 mi North 4.6 mph - N/A   Clear
5:15 AM 39.2 °F 37.0 °F 24.8 °F 56% 30.00 in 10.0 mi NNE 3.5 mph - N/A   Clear
5:35 AM 41.0 °F 36.4 °F 26.6 °F 57% 30.01 in 10.0 mi East 6.9 mph - N/A   Clear
5:55 AM 41.0 °F 38.0 °F 26.6 °F 57% 30.01 in 10.0 mi ESE 4.6 mph - N/A   Clear
6:15 AM 39.2 °F 37.0 °F 26.6 °F 61% 30.02 in 10.0 mi North 3.5 mph - N/A   Clear
6:35 AM 39.2 °F 35.0 °F 24.8 °F 56% 30.03 in 10.0 mi NNE 5.8 mph - N/A   Clear
6:55 AM 42.8 °F 41.1 °F 24.8 °F 49% 30.04 in 10.0 mi NE 3.5 mph - N/A   Clear
7:15 AM 46.4 °F - 26.6 °F 46% 30.05 in 10.0 mi Calm Calm - N/A   Clear
7:35 AM 50.0 °F - 28.4 °F 43% 30.06 in 10.0 mi Calm Calm - N/A   Clear
7:55 AM 50.0 °F - 28.4 °F 43% 30.06 in 10.0 mi SSW 3.5 mph - N/A   Clear
8:15 AM 53.6 °F - 28.4 °F 38% 30.06 in 10.0 mi Calm Calm - N/A   Clear
8:35 AM 53.6 °F - 26.6 °F 35% 30.07 in 9.0 mi Calm Calm - N/A   Clear
8:55 AM 55.4 °F - 30.2 °F 38% 30.08 in 10.0 mi Calm Calm - N/A   Clear
9:15 AM 55.4 °F - 28.4 °F 36% 30.08 in 10.0 mi Calm Calm - N/A   Clear
9:55 AM 59.0 °F - 28.4 °F 31% 30.09 in 10.0 mi ENE 3.5 mph - N/A   Clear
10:15 AM 59.0 °F - 28.4 °F 31% 30.09 in 10.0 mi Calm Calm - N/A   Clear
10:35 AM 59.0 °F - 30.2 °F 34% 30.09 in 10.0 mi NNE 3.5 mph - N/A   Clear
10:55 AM 60.8 °F - 26.6 °F 27% 30.09 in 10.0 mi Calm Calm - N/A   Clear
11:15 AM 62.6 °F - 28.4 °F 27% 30.09 in 10.0 mi SW 3.5 mph - N/A   Clear
11:35 AM 64.4 °F - 24.8 °F 22% 30.09 in 10.0 mi North 4.6 mph - N/A   Clear
11:55 AM 64.4 °F - 24.8 °F 22% 30.08 in 10.0 mi Calm Calm - N/A   Clear
12:15 PM 66.2 °F - 26.6 °F 23% 30.08 in 10.0 mi South 5.8 mph - N/A   Clear
12:35 PM 66.2 °F - 24.8 °F 21% 30.08 in 10.0 mi Calm Calm - N/A   Clear
12:55 PM 66.2 °F - 24.8 °F 21% 30.07 in 10.0 mi East 5.8 mph - N/A   Clear
1:15 PM 66.2 °F - 23.0 °F 19% 30.07 in 10.0 mi SW 5.8 mph - N/A   Clear
1:35 PM 68.0 °F - 23.0 °F 18% 30.06 in 10.0 mi NE 3.5 mph - N/A   Clear
1:55 PM 68.0 °F - 23.0 °F 18% 30.05 in 10.0 mi WSW 4.6 mph - N/A   Clear
2:15 PM 68.0 °F - 23.0 °F 18% 30.04 in 10.0 mi Calm Calm - N/A   Clear
2:35 PM 69.8 °F - 23.0 °F 17% 30.03 in 10.0 mi North 6.9 mph - N/A   Clear
2:55 PM 68.0 °F - 23.0 °F 18% 30.03 in 10.0 mi NE 3.5 mph - N/A   Clear
3:15 PM 69.8 °F - 24.8 °F 18% 30.02 in 10.0 mi SSW 9.2 mph - N/A   Clear
3:35 PM 69.8 °F - 24.8 °F 18% 30.01 in 10.0 mi SSE 6.9 mph - N/A   Clear
3:55 PM 69.8 °F - 24.8 °F 18% 30.01 in 10.0 mi SSW 5.8 mph - N/A   Clear
4:15 PM 69.8 °F - 24.8 °F 18% 30.00 in 10.0 mi SSW 9.2 mph - N/A   Clear
4:35 PM 71.6 °F - 24.8 °F 17% 30.00 in 10.0 mi SSW 6.9 mph - N/A   Clear
4:55 PM 71.6 °F - 24.8 °F 17% 30.00 in 10.0 mi SE 5.8 mph - N/A   Clear
5:15 PM 71.6 °F - 24.8 °F 17% 30.00 in 10.0 mi South 9.2 mph - N/A   Clear
5:35 PM 69.8 °F - 23.0 °F 17% 29.99 in 10.0 mi South 3.5 mph - N/A   Clear
5:55 PM 69.8 °F - 23.0 °F 17% 29.99 in 10.0 mi SSE 6.9 mph - N/A   Clear
6:15 PM 68.0 °F - 24.8 °F 20% 29.99 in 10.0 mi SSE 5.8 mph - N/A   Clear
6:55 PM 64.4 °F - 28.4 °F 26% 29.99 in 7.0 mi SSE 4.6 mph - N/A   Clear
7:35 PM 64.4 °F - 28.4 °F 26% 29.99 in 10.0 mi SSE 3.5 mph - N/A   Clear
9:15 PM 55.4 °F - 23.0 °F 29% 30.00 in 10.0 mi Calm Calm - N/A   Clear
9:35 PM 55.4 °F - 23.0 °F 29% 30.00 in 9.0 mi NE 4.6 mph - N/A   Clear
9:55 PM 55.4 °F - 23.0 °F 29% 30.00 in 10.0 mi NE 4.6 mph - N/A   Clear
10:15 PM 53.6 °F - 21.2 °F 28% 30.00 in 10.0 mi NE 4.6 mph - N/A   Clear
10:35 PM 53.6 °F - 21.2 °F 28% 30.00 in 10.0 mi NNE 3.5 mph - N/A   Clear
10:55 PM 51.8 °F - 19.4 °F 28% 29.99 in 10.0 mi North 8.1 mph - N/A   Clear
11:15 PM 50.0 °F - 19.4 °F 30% 29.99 in 10.0 mi NNE 5.8 mph - N/A   Clear
11:35 PM 51.8 °F - 21.2 °F 30% 29.99 in 10.0 mi North 3.5 mph - N/A   Clear
11:55 PM 50.0 °F - 21.2 °F 32% 30.00 in 10.0 mi North 8.1 mph - N/A   Clear